createdAt,value
2022-12-16T00:01:19.924Z,-3.80
2022-12-16T00:03:49.885Z,-3.70
2022-12-16T00:06:22.965Z,-3.59
2022-12-16T00:08:51.848Z,-3.59
2022-12-16T00:11:20.645Z,-3.56
2022-12-16T00:13:49.154Z,-3.52
2022-12-16T00:16:19.620Z,-3.52
2022-12-16T00:18:48.404Z,-3.49
2022-12-16T00:21:18.469Z,-3.45
2022-12-16T00:23:48.233Z,-3.42
2022-12-16T00:26:16.212Z,-3.38
2022-12-16T00:28:44.259Z,-3.36
2022-12-16T00:31:13.112Z,-3.32
2022-12-16T00:33:41.128Z,-3.29
2022-12-16T00:36:10.254Z,-3.30
2022-12-16T00:38:38.308Z,-3.28
2022-12-16T00:41:08.141Z,-3.27
2022-12-16T00:43:36.375Z,-3.24
2022-12-16T00:46:04.585Z,-3.28
2022-12-16T00:48:32.561Z,-3.28
2022-12-16T00:51:00.584Z,-3.23
2022-12-16T00:53:29.284Z,-3.21
2022-12-16T00:56:03.387Z,-3.20
2022-12-16T00:58:32.781Z,-3.20
2022-12-16T01:01:01.117Z,-3.22
2022-12-16T01:03:29.413Z,-3.19
2022-12-16T01:05:57.457Z,-3.18
2022-12-16T01:08:25.483Z,-3.17
2022-12-16T01:10:55.343Z,-3.15
2022-12-16T01:13:25.404Z,-3.13
2022-12-16T01:15:55.131Z,-3.09
2022-12-16T01:18:23.189Z,-3.06
2022-12-16T01:20:51.381Z,-3.03
2022-12-16T01:23:19.783Z,-3.05
2022-12-16T01:25:52.512Z,-3.04
2022-12-16T01:28:20.485Z,-3.04
2022-12-16T01:30:48.440Z,-3.04
2022-12-16T01:33:17.854Z,-3.06
2022-12-16T01:35:55.771Z,-3.04
2022-12-16T01:38:24.319Z,-3.03
2022-12-16T01:40:52.681Z,-3.05
2022-12-16T01:43:27.123Z,-3.05
2022-12-16T01:45:59.792Z,-3.06
2022-12-16T01:48:39.980Z,-3.03
2022-12-16T01:51:12.064Z,-3.03
2022-12-16T01:53:43.216Z,-3.05
2022-12-16T01:56:14.056Z,-3.05
2022-12-16T01:58:43.607Z,-3.09
2022-12-16T02:01:11.798Z,-3.04
2022-12-16T02:06:09.001Z,-3.05
2022-12-16T02:08:37.098Z,-3.06
2022-12-16T02:11:28.482Z,-3.07
2022-12-16T02:14:34.025Z,-3.08
2022-12-16T02:17:08.709Z,-3.10
2022-12-16T02:20:13.720Z,-3.11
2022-12-16T02:23:00.325Z,-3.11
2022-12-16T02:25:48.457Z,-3.11
2022-12-16T02:28:33.586Z,-3.11
2022-12-16T02:31:16.772Z,-3.09
2022-12-16T02:33:53.432Z,-3.17
2022-12-16T02:36:32.981Z,-3.19
2022-12-16T02:39:05.996Z,-3.19
2022-12-16T02:41:42.342Z,-3.19
2022-12-16T02:44:12.314Z,-3.25
2022-12-16T02:46:43.660Z,-3.23
2022-12-16T02:49:53.221Z,-3.23
2022-12-16T02:52:23.855Z,-3.26
2022-12-16T02:54:56.890Z,-3.32
2022-12-16T02:58:04.496Z,-3.35
2022-12-16T03:00:39.491Z,-3.33
2022-12-16T03:03:13.958Z,-3.42
2022-12-16T03:05:48.290Z,-3.53
2022-12-16T03:08:22.044Z,-3.61
2022-12-16T03:10:54.837Z,-3.78
2022-12-16T03:13:24.592Z,-3.71
2022-12-16T03:15:56.987Z,-3.77
2022-12-16T03:18:27.799Z,-3.70
2022-12-16T03:20:58.318Z,-3.60
2022-12-16T03:23:30.123Z,-3.60
2022-12-16T03:26:05.850Z,-3.62
2022-12-16T03:28:44.423Z,-3.51
2022-12-16T03:31:20.091Z,-3.54
2022-12-16T03:33:57.356Z,-3.61
2022-12-16T03:36:28.266Z,-3.69
2022-12-16T03:38:58.015Z,-3.78
2022-12-16T03:41:27.335Z,-3.98
2022-12-16T03:43:55.684Z,-4.15
2022-12-16T03:46:23.813Z,-4.08
2022-12-16T03:48:53.895Z,-3.98
2022-12-16T03:51:21.901Z,-4.05
2022-12-16T03:53:49.887Z,-4.27
2022-12-16T03:56:17.913Z,-4.26
2022-12-16T03:58:46.999Z,-4.30
2022-12-16T04:01:15.851Z,-4.30
2022-12-16T04:03:44.105Z,-4.46
2022-12-16T04:06:13.563Z,-4.35
2022-12-16T04:08:41.513Z,-4.55
2022-12-16T04:11:26.490Z,-4.55
2022-12-16T04:14:12.078Z,-4.59
2022-12-16T04:16:57.708Z,-4.60
2022-12-16T04:19:46.443Z,-4.61
2022-12-16T04:22:38.600Z,-4.66
2022-12-16T04:25:10.153Z,-4.88
2022-12-16T04:27:38.190Z,-4.79
2022-12-16T04:30:22.361Z,-4.80
2022-12-16T04:33:11.697Z,-4.94
2022-12-16T04:35:57.267Z,-4.83
2022-12-16T04:38:44.038Z,-4.88
2022-12-16T04:41:29.799Z,-5.00
2022-12-16T04:44:15.708Z,-5.06
2022-12-16T04:47:01.158Z,-5.06
2022-12-16T04:49:46.747Z,-4.97
2022-12-16T04:52:32.360Z,-4.89
2022-12-16T04:55:19.238Z,-4.82
2022-12-16T04:58:15.764Z,-4.86
2022-12-16T05:01:01.872Z,-4.72
2022-12-16T05:03:47.497Z,-4.84
2022-12-16T05:06:33.483Z,-4.67
2022-12-16T05:09:19.083Z,-4.64
2022-12-16T05:12:06.560Z,-4.59
2022-12-16T05:14:52.336Z,-4.59
2022-12-16T05:17:38.456Z,-4.55
2022-12-16T05:20:25.076Z,-4.44
2022-12-16T05:23:10.596Z,-4.40
2022-12-16T05:25:56.232Z,-4.37
2022-12-16T05:28:42.982Z,-4.36
2022-12-16T05:31:33.917Z,-4.26
2022-12-16T05:34:19.550Z,-4.15
2022-12-16T05:37:05.019Z,-3.94
2022-12-16T05:39:50.763Z,-3.40
2022-12-16T05:42:36.336Z,-2.89
2022-12-16T05:45:23.991Z,-2.13
2022-12-16T05:48:09.536Z,-1.67
2022-12-16T05:50:55.291Z,-1.85
2022-12-16T05:53:41.576Z,-2.14
2022-12-16T05:56:27.375Z,-2.50
2022-12-16T05:59:12.874Z,-2.43
2022-12-16T06:01:59.827Z,-2.67
2022-12-16T06:04:45.179Z,-2.69
2022-12-16T06:07:30.858Z,-2.42
2022-12-16T06:10:16.041Z,-3.00
2022-12-16T06:13:14.250Z,-3.32
2022-12-16T06:16:03.740Z,-3.55
2022-12-16T06:18:53.854Z,-3.70
2022-12-16T06:21:39.396Z,-3.76
2022-12-16T06:24:25.385Z,-3.93
2022-12-16T06:27:10.949Z,-4.11
2022-12-16T06:29:56.560Z,-4.05
2022-12-16T06:32:42.310Z,-4.12
2022-12-16T06:35:29.041Z,-4.09
2022-12-16T06:38:14.479Z,-4.14
2022-12-16T06:41:00.095Z,-4.23
2022-12-16T06:43:45.705Z,-4.29
2022-12-16T06:46:31.258Z,-4.30
2022-12-16T06:49:16.564Z,-4.31
2022-12-16T06:52:03.288Z,-4.33
2022-12-16T06:54:54.270Z,-4.47
2022-12-16T06:57:39.835Z,-4.53
2022-12-16T07:00:26.358Z,-4.58
2022-12-16T07:03:12.544Z,-4.69
2022-12-16T07:05:58.282Z,-4.74
2022-12-16T07:08:45.083Z,-4.82
2022-12-16T07:11:30.710Z,-4.84
2022-12-16T07:14:16.323Z,-4.92
2022-12-16T07:17:01.884Z,-4.97
2022-12-16T07:19:47.567Z,-5.06
2022-12-16T07:22:45.329Z,-5.02
2022-12-16T07:25:32.283Z,-4.97
2022-12-16T07:28:17.814Z,-5.01
2022-12-16T07:31:03.483Z,-4.98
2022-12-16T07:33:49.056Z,-5.01
2022-12-16T07:36:34.460Z,-4.95
2022-12-16T07:39:20.048Z,-5.04
2022-12-16T07:42:06.877Z,-5.04
2022-12-16T07:44:52.472Z,-4.98
2022-12-16T07:47:49.442Z,-5.00
2022-12-16T07:50:34.822Z,-5.05
2022-12-16T07:53:20.349Z,-5.04
2022-12-16T07:56:05.784Z,-5.02
2022-12-16T07:58:52.690Z,-5.02
2022-12-16T08:01:40.786Z,-4.93
2022-12-16T08:04:26.098Z,-4.89
2022-12-16T08:07:11.861Z,-4.78
2022-12-16T08:09:57.403Z,-4.78
2022-12-16T08:12:43.019Z,-4.67
2022-12-16T08:15:29.701Z,-4.68
2022-12-16T08:18:15.356Z,-4.69
2022-12-16T08:21:00.942Z,-4.69
2022-12-16T08:23:46.444Z,-4.74
2022-12-16T08:26:31.980Z,-4.71
2022-12-16T08:32:29.646Z,-4.61
2022-12-16T08:35:15.293Z,-4.48
2022-12-16T08:38:00.771Z,-4.44
2022-12-16T08:40:46.300Z,-4.43
2022-12-16T08:43:32.131Z,-4.37
2022-12-16T08:46:18.230Z,-4.33
2022-12-16T08:49:10.970Z,-4.29
2022-12-16T08:51:56.511Z,-4.29
2022-12-16T08:54:42.051Z,-4.24
2022-12-16T08:57:27.773Z,-4.14
2022-12-16T09:00:13.449Z,-4.09
2022-12-16T09:02:59.443Z,-4.06
2022-12-16T09:05:45.727Z,-4.03
2022-12-16T09:08:31.184Z,-3.97
2022-12-16T09:11:19.319Z,-4.00
2022-12-16T09:14:04.957Z,-3.92
2022-12-16T09:16:50.493Z,-3.91
2022-12-16T09:19:36.927Z,-3.85
2022-12-16T09:22:23.771Z,-3.85
2022-12-16T09:25:11.928Z,-3.83
2022-12-16T09:27:57.576Z,-3.72
2022-12-16T09:30:43.252Z,-3.70
2022-12-16T09:33:28.478Z,-3.61
2022-12-16T09:36:14.160Z,-3.56
2022-12-16T09:39:01.011Z,-3.60
2022-12-16T09:41:59.364Z,-3.53
2022-12-16T09:44:57.148Z,-3.51
2022-12-16T09:47:51.841Z,-3.49
2022-12-16T09:50:41.147Z,-3.47
2022-12-16T09:53:32.141Z,-3.35
2022-12-16T09:56:25.962Z,-3.40
2022-12-16T09:59:22.109Z,-3.34
2022-12-16T10:02:09.752Z,-3.38
2022-12-16T10:04:55.186Z,-3.38
2022-12-16T10:07:41.824Z,-3.33
2022-12-16T10:10:39.147Z,-3.32
2022-12-16T10:13:35.907Z,-3.30
2022-12-16T10:16:30.800Z,-3.27
2022-12-16T10:19:29.417Z,-3.23
2022-12-16T10:22:21.603Z,-3.20
2022-12-16T10:25:20.370Z,-3.18
2022-12-16T10:28:08.880Z,-3.10
2022-12-16T10:30:56.802Z,-3.03
2022-12-16T10:33:46.413Z,-3.06
2022-12-16T10:36:47.535Z,-3.08
2022-12-16T10:39:42.924Z,-3.09
2022-12-16T10:42:39.707Z,-3.08
2022-12-16T10:45:35.981Z,-3.01
2022-12-16T10:48:23.178Z,-2.95
2022-12-16T10:51:08.638Z,-2.97
2022-12-16T10:54:05.536Z,-2.95
2022-12-16T10:57:11.959Z,-2.94
2022-12-16T10:59:59.451Z,-2.88
2022-12-16T11:02:46.698Z,-2.90
2022-12-16T11:05:51.297Z,-2.89
2022-12-16T11:08:47.639Z,-2.90
2022-12-16T11:11:38.782Z,-2.87
2022-12-16T11:14:34.326Z,-2.88
2022-12-16T11:17:31.637Z,-2.84
2022-12-16T11:20:32.432Z,-2.91
2022-12-16T11:23:34.422Z,-2.99
2022-12-16T11:26:35.835Z,-3.03
2022-12-16T11:29:29.194Z,-2.91
2022-12-16T11:32:20.247Z,-2.85
2022-12-16T11:35:11.312Z,-2.81
2022-12-16T11:37:59.315Z,-2.72
2022-12-16T11:40:47.615Z,-2.74
2022-12-16T11:43:35.482Z,-2.66
2022-12-16T11:46:27.555Z,-2.64
2022-12-16T11:49:21.911Z,-2.64
2022-12-16T11:52:36.003Z,-2.68
2022-12-16T11:55:55.917Z,-2.63
2022-12-16T11:58:44.211Z,-2.62
2022-12-16T12:01:40.045Z,-2.60
2022-12-16T12:04:30.193Z,-2.57
2022-12-16T12:07:30.424Z,-2.52
2022-12-16T12:10:24.686Z,-2.49
2022-12-16T12:13:16.633Z,-2.43
2022-12-16T12:16:14.086Z,-2.40
2022-12-16T12:19:07.898Z,-2.45
2022-12-16T12:22:08.030Z,-2.44
2022-12-16T12:24:58.220Z,-2.52
2022-12-16T12:27:52.014Z,-2.43
2022-12-16T12:30:39.091Z,-2.43
2022-12-16T12:33:49.955Z,-2.40
2022-12-16T12:36:46.651Z,-2.36
2022-12-16T12:39:40.726Z,-2.35
2022-12-16T12:42:44.307Z,-2.32
2022-12-16T12:45:45.945Z,-2.31
2022-12-16T12:48:39.940Z,-2.46
2022-12-16T12:51:33.267Z,-2.40
2022-12-16T12:54:33.241Z,-2.36
2022-12-16T12:57:21.864Z,-2.28
2022-12-16T13:00:19.412Z,-2.24
2022-12-16T13:03:11.111Z,-2.23
2022-12-16T13:05:58.763Z,-2.13
2022-12-16T13:09:01.251Z,-2.03
2022-12-16T13:11:46.821Z,-2.02
2022-12-16T13:15:09.894Z,-1.98
2022-12-16T13:18:27.993Z,-2.06
2022-12-16T13:21:17.019Z,-1.82
2022-12-16T13:24:03.720Z,-1.79
2022-12-16T13:26:51.249Z,-1.75
2022-12-16T13:29:39.881Z,-1.66
2022-12-16T13:32:36.422Z,-1.69
2022-12-16T13:35:34.753Z,-1.62
2022-12-16T13:38:24.550Z,-1.61
2022-12-16T13:41:14.711Z,-1.57
2022-12-16T13:44:04.700Z,-1.60
2022-12-16T13:47:00.295Z,-1.72
2022-12-16T13:50:01.543Z,-1.75
2022-12-16T13:52:59.859Z,-1.77
2022-12-16T13:55:49.496Z,-1.83
2022-12-16T13:58:44.810Z,-1.90
2022-12-16T14:01:35.136Z,-1.90
2022-12-16T14:04:08.254Z,-2.31
2022-12-16T14:06:56.257Z,-1.92
2022-12-16T14:09:48.344Z,-1.99
2022-12-16T14:12:49.698Z,-2.01
2022-12-16T14:15:42.935Z,-2.03
2022-12-16T14:18:43.944Z,-2.02
2022-12-16T14:21:34.862Z,-2.05
2022-12-16T14:24:33.442Z,-2.03
2022-12-16T14:27:26.608Z,-2.00
2022-12-16T14:30:14.024Z,-2.01
2022-12-16T14:32:59.535Z,-2.04
2022-12-16T14:35:49.039Z,-2.14
2022-12-16T14:38:43.227Z,-2.16
2022-12-16T14:41:33.486Z,-2.17
2022-12-16T14:44:32.232Z,-2.21
2022-12-16T14:47:19.079Z,-2.30
2022-12-16T14:50:09.211Z,-2.37
2022-12-16T14:52:54.861Z,-2.42
2022-12-16T14:55:46.471Z,-2.50
2022-12-16T14:58:34.526Z,-2.53
2022-12-16T15:01:24.149Z,-2.63
2022-12-16T15:04:11.445Z,-2.66
2022-12-16T15:07:00.030Z,-2.69
2022-12-16T15:09:50.890Z,-2.70
2022-12-16T15:12:41.537Z,-2.70
2022-12-16T15:15:33.085Z,-2.72
2022-12-16T15:18:20.508Z,-2.72
2022-12-16T15:21:11.925Z,-2.77
2022-12-16T15:23:59.959Z,-2.77
2022-12-16T15:26:48.495Z,-2.76
2022-12-16T15:29:50.470Z,-2.77
2022-12-16T15:35:51.071Z,-2.81
2022-12-16T15:38:47.995Z,-2.80
2022-12-16T15:41:41.025Z,-2.89
2022-12-16T15:44:34.911Z,-2.81
2022-12-16T15:47:20.322Z,-2.82
2022-12-16T15:50:07.413Z,-2.88
2022-12-16T15:52:55.311Z,-2.97
2022-12-16T15:55:53.595Z,-3.00
2022-12-16T15:58:44.055Z,-2.94
2022-12-16T16:01:31.731Z,-2.94
2022-12-16T16:04:18.073Z,-3.02
2022-12-16T16:07:06.900Z,-3.06
2022-12-16T16:09:54.849Z,-3.18
2022-12-16T16:12:43.345Z,-3.21
2022-12-16T16:15:30.932Z,-3.26
2022-12-16T16:18:18.595Z,-3.23
2022-12-16T16:21:05.092Z,-3.20
2022-12-16T16:23:52.990Z,-3.20
2022-12-16T16:26:40.692Z,-3.24
2022-12-16T16:29:28.551Z,-3.33
2022-12-16T16:32:14.099Z,-3.26
2022-12-16T16:34:59.797Z,-3.27
2022-12-16T16:37:45.252Z,-3.26
2022-12-16T16:40:42.221Z,-3.27
2022-12-16T16:43:27.740Z,-3.34
2022-12-16T16:46:11.403Z,-3.44
2022-12-16T16:48:56.989Z,-3.38
2022-12-16T16:51:42.596Z,-3.38
2022-12-16T16:54:28.292Z,-3.46
2022-12-16T16:57:13.729Z,-3.51
2022-12-16T16:59:59.437Z,-3.52
2022-12-16T17:02:46.513Z,-3.52
2022-12-16T17:05:32.525Z,-3.51
2022-12-16T17:08:18.219Z,-3.52
2022-12-16T17:11:05.290Z,-3.52
2022-12-16T17:13:51.052Z,-3.49
2022-12-16T17:16:37.416Z,-3.40
2022-12-16T17:19:24.205Z,-3.37
2022-12-16T17:22:09.555Z,-3.38
2022-12-16T17:24:55.279Z,-3.35
2022-12-16T17:27:43.031Z,-3.41
2022-12-16T17:30:34.139Z,-3.38
2022-12-16T17:33:19.807Z,-3.38
2022-12-16T17:36:08.648Z,-3.56
2022-12-16T17:38:57.442Z,-3.72
2022-12-16T17:41:42.998Z,-3.75
2022-12-16T17:44:28.698Z,-3.81
2022-12-16T17:47:14.200Z,-3.78
2022-12-16T17:49:59.901Z,-3.78
2022-12-16T17:52:46.748Z,-3.77
2022-12-16T17:55:32.809Z,-3.82
2022-12-16T17:58:18.439Z,-3.77
2022-12-16T18:01:04.027Z,-3.79
2022-12-16T18:03:49.646Z,-3.64
2022-12-16T18:06:35.418Z,-3.62
2022-12-16T18:09:22.170Z,-3.63
2022-12-16T18:12:07.881Z,-3.53
2022-12-16T18:14:53.447Z,-3.45
2022-12-16T18:17:39.025Z,-3.36
2022-12-16T18:20:25.222Z,-3.28
2022-12-16T18:23:11.217Z,-3.20
2022-12-16T18:25:58.252Z,-3.23
2022-12-16T18:28:44.507Z,-3.36
2022-12-16T18:31:30.174Z,-3.41
2022-12-16T18:34:15.742Z,-3.60
2022-12-16T18:37:01.212Z,-3.72
2022-12-16T18:39:47.018Z,-3.70
2022-12-16T18:42:34.048Z,-3.69
2022-12-16T18:45:19.544Z,-3.67
2022-12-16T18:48:05.158Z,-3.67
2022-12-16T18:50:50.764Z,-3.69
2022-12-16T18:53:37.494Z,-3.67
2022-12-16T18:56:26.114Z,-3.63
2022-12-16T18:59:13.099Z,-3.67
2022-12-16T19:01:59.189Z,-3.58
2022-12-16T19:04:44.562Z,-3.60
2022-12-16T19:07:33.581Z,-3.64
2022-12-16T19:10:19.592Z,-3.63
2022-12-16T19:13:06.090Z,-3.62
2022-12-16T19:15:53.257Z,-3.55
2022-12-16T19:18:38.961Z,-3.50
2022-12-16T19:21:24.398Z,-3.49
2022-12-16T19:24:09.934Z,-3.49
2022-12-16T19:26:56.589Z,-3.46
2022-12-16T19:29:42.544Z,-3.45
2022-12-16T19:32:29.402Z,-3.52
2022-12-16T19:35:14.793Z,-3.53
2022-12-16T19:38:00.441Z,-3.57
2022-12-16T19:40:45.900Z,-3.57
2022-12-16T19:43:31.616Z,-3.60
2022-12-16T19:46:17.143Z,-3.60
2022-12-16T19:49:03.937Z,-3.61
2022-12-16T19:51:49.695Z,-3.51
2022-12-16T19:54:35.214Z,-3.51
2022-12-16T19:57:20.799Z,-3.49
2022-12-16T20:00:06.377Z,-3.49
2022-12-16T20:02:52.298Z,-3.50
2022-12-16T20:05:40.234Z,-3.53
2022-12-16T20:08:25.724Z,-3.50
2022-12-16T20:11:11.236Z,-3.52
2022-12-16T20:13:56.925Z,-3.56
2022-12-16T20:16:42.369Z,-3.61
2022-12-16T20:19:28.171Z,-3.62
2022-12-16T20:22:16.595Z,-3.67
2022-12-16T20:25:02.011Z,-3.67
2022-12-16T20:27:47.849Z,-3.67
2022-12-16T20:30:33.454Z,-3.64
2022-12-16T20:33:19.052Z,-3.61
2022-12-16T20:36:13.831Z,-3.55
2022-12-16T20:39:00.395Z,-3.51
2022-12-16T20:41:46.077Z,-3.55
2022-12-16T20:44:31.632Z,-3.56
2022-12-16T20:47:17.405Z,-3.60
2022-12-16T20:50:02.952Z,-3.63
2022-12-16T20:52:48.484Z,-3.64
2022-12-16T20:55:35.663Z,-3.64
2022-12-16T20:58:21.298Z,-3.64
2022-12-16T21:01:09.786Z,-3.66
2022-12-16T21:03:56.373Z,-3.66
2022-12-16T21:06:42.044Z,-3.66
2022-12-16T21:09:28.218Z,-3.65
2022-12-16T21:12:15.165Z,-3.64
2022-12-16T21:15:09.821Z,-3.62
2022-12-16T21:17:56.142Z,-3.56
2022-12-16T21:20:41.731Z,-3.58
2022-12-16T21:23:28.429Z,-3.58
2022-12-16T21:26:16.793Z,-3.75
2022-12-16T21:29:03.616Z,-3.88
2022-12-16T21:31:49.294Z,-3.95
2022-12-16T21:34:34.781Z,-4.06
2022-12-16T21:37:20.486Z,-4.00
2022-12-16T21:40:06.036Z,-4.07
2022-12-16T21:42:51.725Z,-4.17
2022-12-16T21:45:38.470Z,-4.22
2022-12-16T21:48:24.037Z,-4.32
2022-12-16T21:51:10.551Z,-4.36
2022-12-16T21:53:56.718Z,-4.46
2022-12-16T21:56:42.445Z,-4.47
2022-12-16T21:59:28.032Z,-4.51
2022-12-16T22:02:14.889Z,-4.50
2022-12-16T22:05:00.404Z,-4.55
2022-12-16T22:07:46.471Z,-4.57
2022-12-16T22:10:31.919Z,-4.61
2022-12-16T22:13:29.395Z,-4.86
2022-12-16T22:16:15.516Z,-4.96
2022-12-16T22:19:02.363Z,-5.10
2022-12-16T22:21:47.920Z,-5.21
2022-12-16T22:24:33.587Z,-5.33
2022-12-16T22:27:19.087Z,-5.35
2022-12-16T22:30:04.657Z,-5.35
2022-12-16T22:32:50.093Z,-5.34
2022-12-16T22:35:36.899Z,-5.33
2022-12-16T22:38:22.101Z,-5.45
2022-12-16T22:41:13.150Z,-5.55
2022-12-16T22:44:07.025Z,-5.64
2022-12-16T22:46:52.016Z,-5.78
2022-12-16T22:49:38.062Z,-5.81
2022-12-16T22:52:25.038Z,-5.90
2022-12-16T22:55:10.822Z,-5.93
2022-12-16T22:58:04.815Z,-5.91
2022-12-16T23:00:50.436Z,-6.01
2022-12-16T23:03:37.276Z,-5.91
2022-12-16T23:06:23.679Z,-5.93
2022-12-16T23:09:10.677Z,-5.96
2022-12-16T23:11:58.124Z,-5.94
2022-12-16T23:14:43.711Z,-6.08
2022-12-16T23:17:29.230Z,-6.15
2022-12-16T23:20:14.941Z,-6.23
2022-12-16T23:23:06.037Z,-6.34
2022-12-16T23:25:52.939Z,-6.41
2022-12-16T23:28:39.266Z,-6.45
2022-12-16T23:31:24.844Z,-6.54
2022-12-16T23:34:10.416Z,-6.54
2022-12-16T23:37:10.463Z,-6.57
2022-12-16T23:39:56.325Z,-6.52
2022-12-16T23:42:43.081Z,-6.53
2022-12-16T23:45:28.784Z,-6.51
2022-12-16T23:48:25.524Z,-6.36
2022-12-16T23:51:11.585Z,-6.69
2022-12-16T23:53:57.052Z,-6.89
2022-12-16T23:56:42.561Z,-6.81
2022-12-16T23:59:29.532Z,-6.75
